sensor_id;sensor_type;location;lat;lon;timestamp;P1;durP1;ratioP1;P2;durP2;ratioP2
5343;SDS011;2694;48.954;8.928;2023-06-10T00:01:37;9.30;;;5.63;;
5343;SDS011;2694;48.954;8.928;2023-06-10T00:04:04;8.52;;;5.75;;
5343;SDS011;2694;48.954;8.928;2023-06-10T00:06:31;7.80;;;5.57;;
5343;SDS011;2694;48.954;8.928;2023-06-10T00:09:02;7.63;;;5.30;;
5343;SDS011;2694;48.954;8.928;2023-06-10T00:11:31;7.60;;;5.00;;
5343;SDS011;2694;48.954;8.928;2023-06-10T00:13:58;7.30;;;5.47;;
5343;SDS011;2694;48.954;8.928;2023-06-10T00:16:26;10.50;;;5.50;;
5343;SDS011;2694;48.954;8.928;2023-06-10T00:18:53;6.32;;;5.00;;
5343;SDS011;2694;48.954;8.928;2023-06-10T00:21:26;8.07;;;5.85;;
5343;SDS011;2694;48.954;8.928;2023-06-10T00:23:53;7.70;;;5.50;;
5343;SDS011;2694;48.954;8.928;2023-06-10T00:26:21;8.35;;;5.55;;
5343;SDS011;2694;48.954;8.928;2023-06-10T00:28:48;10.82;;;6.10;;
5343;SDS011;2694;48.954;8.928;2023-06-10T00:31:16;9.75;;;6.50;;
5343;SDS011;2694;48.954;8.928;2023-06-10T00:33:43;9.27;;;6.90;;
5343;SDS011;2694;48.954;8.928;2023-06-10T00:36:10;8.20;;;6.13;;
5343;SDS011;2694;48.954;8.928;2023-06-10T00:38:37;9.27;;;6.22;;
5343;SDS011;2694;48.954;8.928;2023-06-10T00:41:05;8.93;;;6.00;;
5343;SDS011;2694;48.954;8.928;2023-06-10T00:43:34;10.10;;;6.30;;
5343;SDS011;2694;48.954;8.928;2023-06-10T00:46:02;9.27;;;5.80;;
5343;SDS011;2694;48.954;8.928;2023-06-10T00:48:29;9.43;;;5.70;;
5343;SDS011;2694;48.954;8.928;2023-06-10T00:50:56;8.75;;;5.97;;
5343;SDS011;2694;48.954;8.928;2023-06-10T00:53:24;8.18;;;5.80;;
5343;SDS011;2694;48.954;8.928;2023-06-10T00:55:51;8.05;;;5.50;;
5343;SDS011;2694;48.954;8.928;2023-06-10T00:58:18;7.95;;;5.40;;
5343;SDS011;2694;48.954;8.928;2023-06-10T01:00:47;8.80;;;5.85;;
5343;SDS011;2694;48.954;8.928;2023-06-10T01:03:14;9.37;;;6.13;;
5343;SDS011;2694;48.954;8.928;2023-06-10T01:05:42;8.52;;;5.88;;
5343;SDS011;2694;48.954;8.928;2023-06-10T01:08:11;10.35;;;6.10;;
5343;SDS011;2694;48.954;8.928;2023-06-10T01:10:47;9.40;;;6.45;;
5343;SDS011;2694;48.954;8.928;2023-06-10T01:13:20;8.05;;;5.63;;
5343;SDS011;2694;48.954;8.928;2023-06-10T01:15:55;8.00;;;6.43;;
5343;SDS011;2694;48.954;8.928;2023-06-10T01:18:22;10.32;;;6.60;;
5343;SDS011;2694;48.954;8.928;2023-06-10T01:20:50;8.60;;;5.82;;
5343;SDS011;2694;48.954;8.928;2023-06-10T01:23:18;8.32;;;5.70;;
5343;SDS011;2694;48.954;8.928;2023-06-10T01:25:45;8.70;;;5.88;;
5343;SDS011;2694;48.954;8.928;2023-06-10T01:28:18;9.02;;;6.13;;
5343;SDS011;2694;48.954;8.928;2023-06-10T01:30:55;8.20;;;5.60;;
5343;SDS011;2694;48.954;8.928;2023-06-10T01:33:27;9.48;;;5.10;;
5343;SDS011;2694;48.954;8.928;2023-06-10T01:35:57;9.07;;;5.95;;
5343;SDS011;2694;48.954;8.928;2023-06-10T01:38:27;8.05;;;6.15;;
5343;SDS011;2694;48.954;8.928;2023-06-10T01:40:54;7.77;;;5.63;;
5343;SDS011;2694;48.954;8.928;2023-06-10T01:43:22;7.28;;;5.80;;
5343;SDS011;2694;48.954;8.928;2023-06-10T01:45:49;7.05;;;5.10;;
5343;SDS011;2694;48.954;8.928;2023-06-10T01:48:16;7.82;;;5.82;;
5343;SDS011;2694;48.954;8.928;2023-06-10T01:50:43;9.90;;;6.00;;
5343;SDS011;2694;48.954;8.928;2023-06-10T01:53:10;9.77;;;6.90;;
5343;SDS011;2694;48.954;8.928;2023-06-10T01:55:39;10.48;;;6.35;;
5343;SDS011;2694;48.954;8.928;2023-06-10T01:58:06;8.85;;;6.05;;
5343;SDS011;2694;48.954;8.928;2023-06-10T02:00:33;30.85;;;6.10;;
5343;SDS011;2694;48.954;8.928;2023-06-10T02:03:00;8.70;;;6.13;;
5343;SDS011;2694;48.954;8.928;2023-06-10T02:05:27;10.85;;;6.00;;
5343;SDS011;2694;48.954;8.928;2023-06-10T02:07:54;11.75;;;6.30;;
5343;SDS011;2694;48.954;8.928;2023-06-10T02:10:21;7.45;;;6.00;;
5343;SDS011;2694;48.954;8.928;2023-06-10T02:12:49;8.63;;;5.75;;
5343;SDS011;2694;48.954;8.928;2023-06-10T02:15:16;8.85;;;5.90;;
5343;SDS011;2694;48.954;8.928;2023-06-10T02:17:43;9.88;;;6.22;;
5343;SDS011;2694;48.954;8.928;2023-06-10T02:20:11;7.28;;;5.75;;
5343;SDS011;2694;48.954;8.928;2023-06-10T02:22:38;7.38;;;6.03;;
5343;SDS011;2694;48.954;8.928;2023-06-10T02:25:06;9.23;;;6.03;;
5343;SDS011;2694;48.954;8.928;2023-06-10T02:27:33;8.10;;;6.13;;
5343;SDS011;2694;48.954;8.928;2023-06-10T02:30:02;10.05;;;6.75;;
5343;SDS011;2694;48.954;8.928;2023-06-10T02:32:30;9.40;;;6.45;;
5343;SDS011;2694;48.954;8.928;2023-06-10T02:34:57;10.38;;;6.07;;
5343;SDS011;2694;48.954;8.928;2023-06-10T02:37:25;9.00;;;6.80;;
5343;SDS011;2694;48.954;8.928;2023-06-10T02:39:51;10.15;;;5.97;;
5343;SDS011;2694;48.954;8.928;2023-06-10T02:42:18;8.98;;;5.88;;
5343;SDS011;2694;48.954;8.928;2023-06-10T02:44:45;10.17;;;6.60;;
5343;SDS011;2694;48.954;8.928;2023-06-10T02:47:14;10.00;;;6.80;;
5343;SDS011;2694;48.954;8.928;2023-06-10T02:49:41;8.48;;;6.30;;
5343;SDS011;2694;48.954;8.928;2023-06-10T02:52:07;9.13;;;6.47;;
5343;SDS011;2694;48.954;8.928;2023-06-10T02:54:36;8.98;;;5.80;;
5343;SDS011;2694;48.954;8.928;2023-06-10T02:57:03;9.38;;;6.20;;
5343;SDS011;2694;48.954;8.928;2023-06-10T02:59:31;8.40;;;5.63;;
5343;SDS011;2694;48.954;8.928;2023-06-10T03:01:58;9.38;;;5.78;;
5343;SDS011;2694;48.954;8.928;2023-06-10T03:04:27;7.80;;;5.88;;
5343;SDS011;2694;48.954;8.928;2023-06-10T03:06:55;8.73;;;5.78;;
5343;SDS011;2694;48.954;8.928;2023-06-10T03:09:22;8.30;;;5.63;;
5343;SDS011;2694;48.954;8.928;2023-06-10T03:11:49;10.93;;;6.82;;
5343;SDS011;2694;48.954;8.928;2023-06-10T03:14:16;11.00;;;6.43;;
5343;SDS011;2694;48.954;8.928;2023-06-10T03:16:43;8.40;;;6.07;;
5343;SDS011;2694;48.954;8.928;2023-06-10T03:19:10;9.07;;;6.55;;
5343;SDS011;2694;48.954;8.928;2023-06-10T03:21:39;9.63;;;6.40;;
5343;SDS011;2694;48.954;8.928;2023-06-10T03:24:10;9.07;;;6.07;;
5343;SDS011;2694;48.954;8.928;2023-06-10T03:26:37;8.40;;;6.00;;
5343;SDS011;2694;48.954;8.928;2023-06-10T03:29:04;9.35;;;6.47;;
5343;SDS011;2694;48.954;8.928;2023-06-10T03:31:31;10.00;;;6.30;;
5343;SDS011;2694;48.954;8.928;2023-06-10T03:33:58;11.65;;;7.30;;
5343;SDS011;2694;48.954;8.928;2023-06-10T03:36:24;15.38;;;7.95;;
5343;SDS011;2694;48.954;8.928;2023-06-10T03:38:55;8.95;;;6.88;;
5343;SDS011;2694;48.954;8.928;2023-06-10T03:41:22;10.85;;;7.30;;
5343;SDS011;2694;48.954;8.928;2023-06-10T03:43:50;12.50;;;8.05;;
5343;SDS011;2694;48.954;8.928;2023-06-10T03:46:18;8.82;;;6.53;;
5343;SDS011;2694;48.954;8.928;2023-06-10T03:48:44;8.32;;;6.38;;
5343;SDS011;2694;48.954;8.928;2023-06-10T03:51:11;10.82;;;6.53;;
5343;SDS011;2694;48.954;8.928;2023-06-10T03:53:42;10.13;;;7.15;;
5343;SDS011;2694;48.954;8.928;2023-06-10T03:56:10;9.38;;;6.50;;
5343;SDS011;2694;48.954;8.928;2023-06-10T03:58:37;9.18;;;6.70;;
5343;SDS011;2694;48.954;8.928;2023-06-10T04:01:04;9.65;;;6.82;;
5343;SDS011;2694;48.954;8.928;2023-06-10T04:03:32;13.20;;;7.00;;
5343;SDS011;2694;48.954;8.928;2023-06-10T04:06:04;10.10;;;6.50;;
5343;SDS011;2694;48.954;8.928;2023-06-10T04:08:31;8.18;;;6.28;;
5343;SDS011;2694;48.954;8.928;2023-06-10T04:10:58;8.43;;;6.55;;
5343;SDS011;2694;48.954;8.928;2023-06-10T04:13:26;9.50;;;5.60;;
5343;SDS011;2694;48.954;8.928;2023-06-10T04:15:53;11.00;;;6.55;;
5343;SDS011;2694;48.954;8.928;2023-06-10T04:18:20;9.32;;;6.53;;
5343;SDS011;2694;48.954;8.928;2023-06-10T04:20:47;9.77;;;6.20;;
5343;SDS011;2694;48.954;8.928;2023-06-10T04:23:14;9.52;;;5.82;;
5343;SDS011;2694;48.954;8.928;2023-06-10T04:25:42;10.25;;;6.65;;
5343;SDS011;2694;48.954;8.928;2023-06-10T04:28:09;7.32;;;5.32;;
5343;SDS011;2694;48.954;8.928;2023-06-10T04:30:37;7.50;;;5.60;;
5343;SDS011;2694;48.954;8.928;2023-06-10T04:33:04;8.30;;;6.25;;
5343;SDS011;2694;48.954;8.928;2023-06-10T04:35:34;8.63;;;5.70;;
5343;SDS011;2694;48.954;8.928;2023-06-10T04:38:00;8.20;;;6.00;;
5343;SDS011;2694;48.954;8.928;2023-06-10T04:40:28;9.15;;;5.72;;
5343;SDS011;2694;48.954;8.928;2023-06-10T04:42:55;7.43;;;5.45;;
5343;SDS011;2694;48.954;8.928;2023-06-10T04:45:22;7.15;;;5.43;;
5343;SDS011;2694;48.954;8.928;2023-06-10T04:47:50;9.82;;;6.25;;
5343;SDS011;2694;48.954;8.928;2023-06-10T04:50:17;9.15;;;5.90;;
5343;SDS011;2694;48.954;8.928;2023-06-10T04:52:44;8.32;;;5.38;;
5343;SDS011;2694;48.954;8.928;2023-06-10T04:55:11;10.50;;;6.40;;
5343;SDS011;2694;48.954;8.928;2023-06-10T04:57:41;7.70;;;5.75;;
5343;SDS011;2694;48.954;8.928;2023-06-10T05:00:08;8.82;;;6.55;;
5343;SDS011;2694;48.954;8.928;2023-06-10T05:02:36;8.20;;;6.10;;
5343;SDS011;2694;48.954;8.928;2023-06-10T05:05:06;8.20;;;5.90;;
5343;SDS011;2694;48.954;8.928;2023-06-10T05:07:35;8.88;;;5.90;;
5343;SDS011;2694;48.954;8.928;2023-06-10T05:10:02;8.50;;;6.13;;
5343;SDS011;2694;48.954;8.928;2023-06-10T05:12:29;7.72;;;5.70;;
5343;SDS011;2694;48.954;8.928;2023-06-10T05:14:56;8.13;;;5.82;;
5343;SDS011;2694;48.954;8.928;2023-06-10T05:17:23;8.40;;;5.70;;
5343;SDS011;2694;48.954;8.928;2023-06-10T05:19:50;8.23;;;5.88;;
5343;SDS011;2694;48.954;8.928;2023-06-10T05:22:19;7.28;;;5.38;;
5343;SDS011;2694;48.954;8.928;2023-06-10T05:24:49;10.30;;;5.20;;
5343;SDS011;2694;48.954;8.928;2023-06-10T05:27:16;6.15;;;4.72;;
5343;SDS011;2694;48.954;8.928;2023-06-10T05:29:44;7.18;;;4.70;;
5343;SDS011;2694;48.954;8.928;2023-06-10T05:32:11;9.50;;;5.13;;
5343;SDS011;2694;48.954;8.928;2023-06-10T05:34:38;6.30;;;4.70;;
5343;SDS011;2694;48.954;8.928;2023-06-10T05:37:05;7.73;;;4.77;;
5343;SDS011;2694;48.954;8.928;2023-06-10T05:39:34;6.95;;;4.50;;
5343;SDS011;2694;48.954;8.928;2023-06-10T05:42:03;6.80;;;4.40;;
5343;SDS011;2694;48.954;8.928;2023-06-10T05:44:31;7.35;;;4.50;;
5343;SDS011;2694;48.954;8.928;2023-06-10T05:46:58;7.22;;;4.55;;
5343;SDS011;2694;48.954;8.928;2023-06-10T05:49:25;7.20;;;4.90;;
5343;SDS011;2694;48.954;8.928;2023-06-10T05:51:53;8.00;;;4.20;;
5343;SDS011;2694;48.954;8.928;2023-06-10T05:54:21;8.40;;;4.32;;
5343;SDS011;2694;48.954;8.928;2023-06-10T05:56:49;9.50;;;4.60;;
5343;SDS011;2694;48.954;8.928;2023-06-10T05:59:16;9.23;;;5.05;;
5343;SDS011;2694;48.954;8.928;2023-06-10T06:01:48;6.80;;;4.80;;
5343;SDS011;2694;48.954;8.928;2023-06-10T06:04:15;7.37;;;4.43;;
5343;SDS011;2694;48.954;8.928;2023-06-10T06:06:42;5.78;;;4.50;;
5343;SDS011;2694;48.954;8.928;2023-06-10T06:09:09;5.50;;;4.50;;
5343;SDS011;2694;48.954;8.928;2023-06-10T06:11:36;5.97;;;4.40;;
5343;SDS011;2694;48.954;8.928;2023-06-10T06:14:06;6.25;;;4.28;;
5343;SDS011;2694;48.954;8.928;2023-06-10T06:16:44;6.30;;;3.90;;
5343;SDS011;2694;48.954;8.928;2023-06-10T06:19:12;8.40;;;4.20;;
5343;SDS011;2694;48.954;8.928;2023-06-10T06:21:39;7.35;;;4.10;;
5343;SDS011;2694;48.954;8.928;2023-06-10T06:24:06;5.53;;;4.20;;
5343;SDS011;2694;48.954;8.928;2023-06-10T06:26:33;7.43;;;4.33;;
5343;SDS011;2694;48.954;8.928;2023-06-10T06:29:00;5.70;;;3.90;;
5343;SDS011;2694;48.954;8.928;2023-06-10T06:31:29;4.97;;;4.05;;
5343;SDS011;2694;48.954;8.928;2023-06-10T06:33:56;7.18;;;4.18;;
5343;SDS011;2694;48.954;8.928;2023-06-10T06:36:23;6.47;;;4.32;;
5343;SDS011;2694;48.954;8.928;2023-06-10T06:38:50;6.43;;;4.35;;
5343;SDS011;2694;48.954;8.928;2023-06-10T06:41:17;6.30;;;3.85;;
5343;SDS011;2694;48.954;8.928;2023-06-10T06:43:44;6.50;;;3.70;;
5343;SDS011;2694;48.954;8.928;2023-06-10T06:46:11;5.97;;;4.05;;
5343;SDS011;2694;48.954;8.928;2023-06-10T06:48:39;5.63;;;3.70;;
5343;SDS011;2694;48.954;8.928;2023-06-10T06:51:06;6.30;;;3.70;;
5343;SDS011;2694;48.954;8.928;2023-06-10T06:53:33;5.40;;;3.60;;
5343;SDS011;2694;48.954;8.928;2023-06-10T06:56:00;5.18;;;3.90;;
5343;SDS011;2694;48.954;8.928;2023-06-10T06:58:28;6.43;;;3.90;;
5343;SDS011;2694;48.954;8.928;2023-06-10T07:00:55;7.27;;;4.20;;
5343;SDS011;2694;48.954;8.928;2023-06-10T07:03:22;6.43;;;3.90;;
5343;SDS011;2694;48.954;8.928;2023-06-10T07:05:50;5.93;;;3.80;;
5343;SDS011;2694;48.954;8.928;2023-06-10T07:08:17;5.00;;;3.75;;
5343;SDS011;2694;48.954;8.928;2023-06-10T07:10:45;4.72;;;3.70;;
5343;SDS011;2694;48.954;8.928;2023-06-10T07:13:14;5.40;;;4.10;;
5343;SDS011;2694;48.954;8.928;2023-06-10T07:15:41;4.72;;;3.60;;
5343;SDS011;2694;48.954;8.928;2023-06-10T07:18:08;5.43;;;3.80;;
5343;SDS011;2694;48.954;8.928;2023-06-10T07:20:35;6.50;;;4.22;;
5343;SDS011;2694;48.954;8.928;2023-06-10T07:23:04;6.90;;;3.87;;
5343;SDS011;2694;48.954;8.928;2023-06-10T07:25:31;5.97;;;3.90;;
5343;SDS011;2694;48.954;8.928;2023-06-10T07:27:58;5.45;;;3.50;;
5343;SDS011;2694;48.954;8.928;2023-06-10T07:30:26;4.95;;;3.60;;
5343;SDS011;2694;48.954;8.928;2023-06-10T07:32:53;6.65;;;3.50;;
5343;SDS011;2694;48.954;8.928;2023-06-10T07:35:20;7.37;;;3.90;;
5343;SDS011;2694;48.954;8.928;2023-06-10T07:37:47;4.75;;;3.58;;
5343;SDS011;2694;48.954;8.928;2023-06-10T07:40:16;5.40;;;3.77;;
5343;SDS011;2694;48.954;8.928;2023-06-10T07:42:43;4.78;;;3.47;;
5343;SDS011;2694;48.954;8.928;2023-06-10T07:45:21;4.63;;;3.60;;
5343;SDS011;2694;48.954;8.928;2023-06-10T07:47:49;5.95;;;3.53;;
5343;SDS011;2694;48.954;8.928;2023-06-10T07:50:16;5.22;;;3.25;;
5343;SDS011;2694;48.954;8.928;2023-06-10T07:52:44;5.03;;;3.85;;
5343;SDS011;2694;48.954;8.928;2023-06-10T07:55:10;5.68;;;3.65;;
5343;SDS011;2694;48.954;8.928;2023-06-10T07:57:39;5.30;;;3.72;;
5343;SDS011;2694;48.954;8.928;2023-06-10T08:00:06;7.22;;;3.50;;
5343;SDS011;2694;48.954;8.928;2023-06-10T08:02:34;3.92;;;3.20;;
5343;SDS011;2694;48.954;8.928;2023-06-10T08:05:00;7.85;;;3.80;;
5343;SDS011;2694;48.954;8.928;2023-06-10T08:07:27;6.72;;;3.60;;
5343;SDS011;2694;48.954;8.928;2023-06-10T08:09:56;5.45;;;3.42;;
5343;SDS011;2694;48.954;8.928;2023-06-10T08:12:23;4.00;;;3.40;;
5343;SDS011;2694;48.954;8.928;2023-06-10T08:14:52;5.20;;;3.20;;
5343;SDS011;2694;48.954;8.928;2023-06-10T08:17:20;5.90;;;3.70;;
5343;SDS011;2694;48.954;8.928;2023-06-10T08:19:47;5.70;;;3.53;;
5343;SDS011;2694;48.954;8.928;2023-06-10T08:22:14;6.03;;;4.05;;
5343;SDS011;2694;48.954;8.928;2023-06-10T08:24:41;5.40;;;4.10;;
5343;SDS011;2694;48.954;8.928;2023-06-10T08:27:09;5.38;;;3.20;;
5343;SDS011;2694;48.954;8.928;2023-06-10T08:29:36;6.55;;;4.10;;
5343;SDS011;2694;48.954;8.928;2023-06-10T08:32:05;5.32;;;4.07;;
5343;SDS011;2694;48.954;8.928;2023-06-10T08:34:33;5.50;;;3.70;;
5343;SDS011;2694;48.954;8.928;2023-06-10T08:37:02;6.60;;;4.10;;
5343;SDS011;2694;48.954;8.928;2023-06-10T08:39:29;5.32;;;4.00;;
5343;SDS011;2694;48.954;8.928;2023-06-10T08:42:04;6.93;;;4.50;;
5343;SDS011;2694;48.954;8.928;2023-06-10T08:44:40;6.85;;;4.30;;
5343;SDS011;2694;48.954;8.928;2023-06-10T08:47:13;8.30;;;4.05;;
5343;SDS011;2694;48.954;8.928;2023-06-10T08:49:42;5.18;;;3.85;;
5343;SDS011;2694;48.954;8.928;2023-06-10T08:52:14;6.80;;;4.00;;
5343;SDS011;2694;48.954;8.928;2023-06-10T08:54:42;5.57;;;4.35;;
5343;SDS011;2694;48.954;8.928;2023-06-10T08:57:15;6.82;;;3.75;;
5343;SDS011;2694;48.954;8.928;2023-06-10T08:59:46;6.77;;;4.20;;
5343;SDS011;2694;48.954;8.928;2023-06-10T09:02:15;5.70;;;3.60;;
5343;SDS011;2694;48.954;8.928;2023-06-10T09:04:44;6.45;;;3.80;;
5343;SDS011;2694;48.954;8.928;2023-06-10T09:07:15;5.07;;;3.90;;
5343;SDS011;2694;48.954;8.928;2023-06-10T09:09:43;6.25;;;4.10;;
5343;SDS011;2694;48.954;8.928;2023-06-10T09:12:14;5.60;;;3.90;;
5343;SDS011;2694;48.954;8.928;2023-06-10T09:14:43;5.47;;;3.85;;
5343;SDS011;2694;48.954;8.928;2023-06-10T09:17:11;7.00;;;4.47;;
5343;SDS011;2694;48.954;8.928;2023-06-10T09:19:41;5.20;;;3.80;;
5343;SDS011;2694;48.954;8.928;2023-06-10T09:22:11;5.50;;;3.70;;
5343;SDS011;2694;48.954;8.928;2023-06-10T09:24:38;4.85;;;3.70;;
5343;SDS011;2694;48.954;8.928;2023-06-10T09:27:06;6.87;;;4.23;;
5343;SDS011;2694;48.954;8.928;2023-06-10T09:29:44;6.00;;;4.20;;
5343;SDS011;2694;48.954;8.928;2023-06-10T09:32:13;8.38;;;4.30;;
5343;SDS011;2694;48.954;8.928;2023-06-10T09:34:42;5.07;;;3.72;;
5343;SDS011;2694;48.954;8.928;2023-06-10T09:37:10;7.07;;;4.10;;
5343;SDS011;2694;48.954;8.928;2023-06-10T09:39:39;5.40;;;3.90;;
5343;SDS011;2694;48.954;8.928;2023-06-10T09:42:16;7.43;;;4.53;;
5343;SDS011;2694;48.954;8.928;2023-06-10T09:44:48;5.20;;;4.18;;
5343;SDS011;2694;48.954;8.928;2023-06-10T09:47:19;6.30;;;4.40;;
5343;SDS011;2694;48.954;8.928;2023-06-10T09:49:49;5.43;;;3.80;;
5343;SDS011;2694;48.954;8.928;2023-06-10T09:52:20;5.38;;;3.97;;
5343;SDS011;2694;48.954;8.928;2023-06-10T09:54:50;5.03;;;3.60;;
5343;SDS011;2694;48.954;8.928;2023-06-10T09:57:18;5.30;;;3.90;;
5343;SDS011;2694;48.954;8.928;2023-06-10T09:59:46;6.95;;;4.40;;
5343;SDS011;2694;48.954;8.928;2023-06-10T10:02:23;6.78;;;4.10;;
5343;SDS011;2694;48.954;8.928;2023-06-10T10:04:52;6.00;;;4.80;;
5343;SDS011;2694;48.954;8.928;2023-06-10T10:07:22;5.80;;;4.07;;
5343;SDS011;2694;48.954;8.928;2023-06-10T10:09:49;5.65;;;4.00;;
5343;SDS011;2694;48.954;8.928;2023-06-10T10:12:17;6.00;;;3.67;;
5343;SDS011;2694;48.954;8.928;2023-06-10T10:14:46;5.30;;;4.15;;
5343;SDS011;2694;48.954;8.928;2023-06-10T10:17:14;6.05;;;4.28;;
5343;SDS011;2694;48.954;8.928;2023-06-10T10:19:46;7.63;;;4.53;;
5343;SDS011;2694;48.954;8.928;2023-06-10T10:22:18;8.07;;;3.90;;
5343;SDS011;2694;48.954;8.928;2023-06-10T10:24:47;8.95;;;4.57;;
5343;SDS011;2694;48.954;8.928;2023-06-10T10:27:17;6.18;;;4.30;;
5343;SDS011;2694;48.954;8.928;2023-06-10T10:29:47;6.43;;;4.32;;
5343;SDS011;2694;48.954;8.928;2023-06-10T10:32:18;5.00;;;3.80;;
5343;SDS011;2694;48.954;8.928;2023-06-10T10:34:53;5.60;;;3.80;;
5343;SDS011;2694;48.954;8.928;2023-06-10T10:37:29;5.43;;;3.73;;
5343;SDS011;2694;48.954;8.928;2023-06-10T10:40:05;9.73;;;5.20;;
5343;SDS011;2694;48.954;8.928;2023-06-10T10:42:43;5.55;;;4.35;;
5343;SDS011;2694;48.954;8.928;2023-06-10T10:45:14;6.03;;;4.47;;
5343;SDS011;2694;48.954;8.928;2023-06-10T10:47:42;5.82;;;4.00;;
5343;SDS011;2694;48.954;8.928;2023-06-10T10:50:13;4.47;;;3.60;;
5343;SDS011;2694;48.954;8.928;2023-06-10T10:52:52;6.40;;;3.78;;
5343;SDS011;2694;48.954;8.928;2023-06-10T10:55:21;5.03;;;3.75;;
5343;SDS011;2694;48.954;8.928;2023-06-10T10:57:55;4.80;;;3.50;;
5343;SDS011;2694;48.954;8.928;2023-06-10T11:00:24;4.95;;;3.35;;
5343;SDS011;2694;48.954;8.928;2023-06-10T11:02:57;5.20;;;3.10;;
5343;SDS011;2694;48.954;8.928;2023-06-10T11:05:37;3.90;;;3.30;;
5343;SDS011;2694;48.954;8.928;2023-06-10T11:08:10;6.90;;;3.40;;
5343;SDS011;2694;48.954;8.928;2023-06-10T11:10:38;8.43;;;3.95;;
5343;SDS011;2694;48.954;8.928;2023-06-10T11:13:08;4.03;;;2.90;;
5343;SDS011;2694;48.954;8.928;2023-06-10T11:15:38;6.35;;;3.03;;
5343;SDS011;2694;48.954;8.928;2023-06-10T11:18:10;5.10;;;3.35;;
5343;SDS011;2694;48.954;8.928;2023-06-10T11:23:26;4.38;;;3.45;;
5343;SDS011;2694;48.954;8.928;2023-06-10T11:26:16;4.93;;;3.50;;
5343;SDS011;2694;48.954;8.928;2023-06-10T11:29:07;4.28;;;3.30;;
5343;SDS011;2694;48.954;8.928;2023-06-10T11:31:41;4.93;;;3.40;;
5343;SDS011;2694;48.954;8.928;2023-06-10T11:34:10;4.78;;;3.50;;
5343;SDS011;2694;48.954;8.928;2023-06-10T11:36:37;6.82;;;3.25;;
5343;SDS011;2694;48.954;8.928;2023-06-10T11:39:12;5.55;;;3.10;;
5343;SDS011;2694;48.954;8.928;2023-06-10T11:41:39;5.43;;;3.50;;
5343;SDS011;2694;48.954;8.928;2023-06-10T11:44:10;5.60;;;3.38;;
5343;SDS011;2694;48.954;8.928;2023-06-10T11:46:38;3.40;;;2.70;;
5343;SDS011;2694;48.954;8.928;2023-06-10T11:49:07;5.20;;;2.95;;
5343;SDS011;2694;48.954;8.928;2023-06-10T11:51:35;4.45;;;3.20;;
5343;SDS011;2694;48.954;8.928;2023-06-10T11:54:04;5.18;;;3.20;;
5343;SDS011;2694;48.954;8.928;2023-06-10T11:56:33;6.57;;;3.70;;
5343;SDS011;2694;48.954;8.928;2023-06-10T11:59:00;4.63;;;3.00;;
5343;SDS011;2694;48.954;8.928;2023-06-10T12:01:31;7.97;;;3.40;;
5343;SDS011;2694;48.954;8.928;2023-06-10T12:04:01;4.40;;;3.30;;
5343;SDS011;2694;48.954;8.928;2023-06-10T12:06:40;4.82;;;3.22;;
5343;SDS011;2694;48.954;8.928;2023-06-10T12:09:24;5.00;;;3.00;;
5343;SDS011;2694;48.954;8.928;2023-06-10T12:12:04;5.65;;;3.60;;
5343;SDS011;2694;48.954;8.928;2023-06-10T12:14:51;4.47;;;2.83;;
5343;SDS011;2694;48.954;8.928;2023-06-10T12:17:23;4.43;;;2.80;;
5343;SDS011;2694;48.954;8.928;2023-06-10T12:20:03;3.77;;;2.70;;
5343;SDS011;2694;48.954;8.928;2023-06-10T12:22:36;5.10;;;3.10;;
5343;SDS011;2694;48.954;8.928;2023-06-10T12:25:23;3.78;;;2.80;;
5343;SDS011;2694;48.954;8.928;2023-06-10T12:27:53;4.82;;;3.45;;
5343;SDS011;2694;48.954;8.928;2023-06-10T12:30:22;5.07;;;3.40;;
5343;SDS011;2694;48.954;8.928;2023-06-10T12:32:51;7.22;;;3.25;;
5343;SDS011;2694;48.954;8.928;2023-06-10T12:35:19;5.75;;;3.55;;
5343;SDS011;2694;48.954;8.928;2023-06-10T12:37:55;4.57;;;3.30;;
5343;SDS011;2694;48.954;8.928;2023-06-10T12:40:26;5.43;;;3.22;;
5343;SDS011;2694;48.954;8.928;2023-06-10T12:42:56;7.40;;;3.30;;
5343;SDS011;2694;48.954;8.928;2023-06-10T12:45:26;5.38;;;2.92;;
5343;SDS011;2694;48.954;8.928;2023-06-10T12:48:03;4.22;;;3.08;;
5343;SDS011;2694;48.954;8.928;2023-06-10T12:50:34;4.82;;;2.90;;
5343;SDS011;2694;48.954;8.928;2023-06-10T12:53:02;6.25;;;3.75;;
5343;SDS011;2694;48.954;8.928;2023-06-10T12:55:30;4.43;;;3.05;;
5343;SDS011;2694;48.954;8.928;2023-06-10T12:57:59;4.20;;;3.10;;
5343;SDS011;2694;48.954;8.928;2023-06-10T13:00:28;4.55;;;3.08;;
5343;SDS011;2694;48.954;8.928;2023-06-10T13:02:55;3.67;;;2.80;;
5343;SDS011;2694;48.954;8.928;2023-06-10T13:05:27;5.07;;;3.20;;
5343;SDS011;2694;48.954;8.928;2023-06-10T13:08:22;4.90;;;2.80;;
5343;SDS011;2694;48.954;8.928;2023-06-10T13:10:49;3.63;;;2.72;;
5343;SDS011;2694;48.954;8.928;2023-06-10T13:13:19;5.63;;;3.10;;
5343;SDS011;2694;48.954;8.928;2023-06-10T13:15:45;3.97;;;3.10;;
5343;SDS011;2694;48.954;8.928;2023-06-10T13:18:15;3.53;;;2.67;;
5343;SDS011;2694;48.954;8.928;2023-06-10T13:20:43;3.50;;;2.70;;
5343;SDS011;2694;48.954;8.928;2023-06-10T13:23:11;5.40;;;3.05;;
5343;SDS011;2694;48.954;8.928;2023-06-10T13:25:39;4.25;;;3.00;;
5343;SDS011;2694;48.954;8.928;2023-06-10T13:28:09;4.13;;;2.33;;
5343;SDS011;2694;48.954;8.928;2023-06-10T13:30:38;4.32;;;2.65;;
5343;SDS011;2694;48.954;8.928;2023-06-10T13:33:05;3.30;;;2.30;;
5343;SDS011;2694;48.954;8.928;2023-06-10T13:35:34;3.53;;;2.70;;
5343;SDS011;2694;48.954;8.928;2023-06-10T13:38:01;4.90;;;2.50;;
5343;SDS011;2694;48.954;8.928;2023-06-10T13:40:28;4.80;;;2.65;;
5343;SDS011;2694;48.954;8.928;2023-06-10T13:42:55;3.53;;;2.60;;
5343;SDS011;2694;48.954;8.928;2023-06-10T13:45:22;4.93;;;2.95;;
5343;SDS011;2694;48.954;8.928;2023-06-10T13:47:51;6.80;;;2.90;;
5343;SDS011;2694;48.954;8.928;2023-06-10T13:50:18;4.47;;;2.90;;
5343;SDS011;2694;48.954;8.928;2023-06-10T13:52:45;3.78;;;2.88;;
5343;SDS011;2694;48.954;8.928;2023-06-10T13:55:13;5.50;;;4.30;;
5343;SDS011;2694;48.954;8.928;2023-06-10T13:57:40;5.00;;;3.20;;
5343;SDS011;2694;48.954;8.928;2023-06-10T14:00:08;3.00;;;2.20;;
5343;SDS011;2694;48.954;8.928;2023-06-10T14:02:36;4.60;;;2.85;;
5343;SDS011;2694;48.954;8.928;2023-06-10T14:05:05;2.75;;;2.25;;
5343;SDS011;2694;48.954;8.928;2023-06-10T14:07:33;3.38;;;2.35;;
5343;SDS011;2694;48.954;8.928;2023-06-10T14:10:00;3.15;;;2.40;;
5343;SDS011;2694;48.954;8.928;2023-06-10T14:12:27;5.47;;;2.88;;
5343;SDS011;2694;48.954;8.928;2023-06-10T14:14:55;3.90;;;2.70;;
5343;SDS011;2694;48.954;8.928;2023-06-10T14:17:22;3.85;;;2.55;;
5343;SDS011;2694;48.954;8.928;2023-06-10T14:19:49;7.20;;;2.95;;
5343;SDS011;2694;48.954;8.928;2023-06-10T14:22:18;3.83;;;2.80;;
5343;SDS011;2694;48.954;8.928;2023-06-10T14:24:46;6.68;;;2.60;;
5343;SDS011;2694;48.954;8.928;2023-06-10T14:27:14;3.90;;;2.50;;
5343;SDS011;2694;48.954;8.928;2023-06-10T14:29:41;3.93;;;3.10;;
5343;SDS011;2694;48.954;8.928;2023-06-10T14:32:08;2.95;;;2.40;;
5343;SDS011;2694;48.954;8.928;2023-06-10T14:34:35;6.88;;;3.30;;
5343;SDS011;2694;48.954;8.928;2023-06-10T14:37:04;4.90;;;3.17;;
5343;SDS011;2694;48.954;8.928;2023-06-10T14:39:33;4.15;;;2.67;;
5343;SDS011;2694;48.954;8.928;2023-06-10T14:42:01;5.40;;;2.60;;
5343;SDS011;2694;48.954;8.928;2023-06-10T14:44:28;4.00;;;2.67;;
5343;SDS011;2694;48.954;8.928;2023-06-10T14:46:55;4.68;;;2.80;;
5343;SDS011;2694;48.954;8.928;2023-06-10T14:49:22;3.70;;;2.93;;
5343;SDS011;2694;48.954;8.928;2023-06-10T14:51:49;3.00;;;2.40;;
5343;SDS011;2694;48.954;8.928;2023-06-10T14:54:19;3.53;;;2.45;;
5343;SDS011;2694;48.954;8.928;2023-06-10T14:56:48;3.88;;;2.60;;
5343;SDS011;2694;48.954;8.928;2023-06-10T14:59:15;2.90;;;2.17;;
5343;SDS011;2694;48.954;8.928;2023-06-10T15:01:42;4.45;;;2.80;;
5343;SDS011;2694;48.954;8.928;2023-06-10T15:04:08;3.67;;;2.38;;
5343;SDS011;2694;48.954;8.928;2023-06-10T15:06:38;6.40;;;3.13;;
5343;SDS011;2694;48.954;8.928;2023-06-10T15:09:06;8.17;;;3.00;;
5343;SDS011;2694;48.954;8.928;2023-06-10T15:11:33;4.25;;;2.50;;
5343;SDS011;2694;48.954;8.928;2023-06-10T15:14:05;5.90;;;2.55;;
5343;SDS011;2694;48.954;8.928;2023-06-10T15:16:31;4.22;;;2.50;;
5343;SDS011;2694;48.954;8.928;2023-06-10T15:18:58;3.57;;;2.60;;
5343;SDS011;2694;48.954;8.928;2023-06-10T15:21:26;3.90;;;2.70;;
5343;SDS011;2694;48.954;8.928;2023-06-10T15:23:54;4.10;;;2.20;;
5343;SDS011;2694;48.954;8.928;2023-06-10T15:26:21;4.70;;;2.47;;
5343;SDS011;2694;48.954;8.928;2023-06-10T15:28:48;2.83;;;2.30;;